createdAt,value
2018-03-06T00:01:21.374Z,99505.70
2018-03-06T00:05:24.718Z,99510.57
2018-03-06T00:09:28.055Z,99515.78
2018-03-06T00:13:32.143Z,99512.77
2018-03-06T00:17:36.246Z,99509.48
2018-03-06T00:21:39.598Z,99511.44
2018-03-06T00:25:42.919Z,99503.73
2018-03-06T00:29:46.260Z,99503.95
2018-03-06T00:33:49.594Z,99505.52
2018-03-06T00:37:52.918Z,99503.87
2018-03-06T00:41:57.023Z,99507.87
2018-03-06T00:46:00.366Z,99506.66
2018-03-06T00:50:03.723Z,99504.36
2018-03-06T00:54:07.046Z,99496.84
2018-03-06T00:58:11.157Z,99503.45
2018-03-06T01:02:14.473Z,99495.40
2018-03-06T01:06:18.589Z,99498.13
2018-03-06T01:10:22.676Z,99494.70
2018-03-06T01:14:26.060Z,99489.84
2018-03-06T01:18:30.114Z,99485.45
2018-03-06T01:22:33.459Z,99485.22
2018-03-06T01:26:36.808Z,99481.14
2018-03-06T01:30:40.152Z,99476.25
2018-03-06T01:34:44.247Z,99476.78
2018-03-06T01:38:47.599Z,99481.53
2018-03-06T01:42:50.918Z,99466.75
2018-03-06T01:46:54.273Z,99471.16
2018-03-06T01:50:57.595Z,99456.09
2018-03-06T01:55:01.695Z,99463.71
2018-03-06T01:59:05.039Z,99465.17
2018-03-06T02:03:08.391Z,99445.61
2018-03-06T02:07:11.730Z,99450.20
2018-03-06T02:11:15.081Z,99441.12
2018-03-06T02:15:18.417Z,99445.19
2018-03-06T02:19:22.512Z,99430.34
2018-03-06T02:23:25.863Z,99429.17
2018-03-06T02:27:29.200Z,99438.89
2018-03-06T02:31:32.542Z,99442.21
2018-03-06T02:35:35.878Z,99432.78
2018-03-06T02:39:39.219Z,99433.93
2018-03-06T02:43:43.430Z,99430.72
2018-03-06T02:47:47.498Z,99428.89
2018-03-06T02:51:51.614Z,99427.14
2018-03-06T02:55:55.867Z,99429.56
2018-03-06T02:59:59.305Z,99424.65
2018-03-06T03:04:03.640Z,99423.31
2018-03-06T03:08:07.059Z,99418.64
2018-03-06T03:12:11.246Z,99420.19
2018-03-06T03:16:14.625Z,99408.30
2018-03-06T03:20:18.125Z,99412.35
2018-03-06T03:24:21.485Z,99411.64
2018-03-06T03:28:24.892Z,99411.50
2018-03-06T03:32:28.321Z,99414.83
2018-03-06T03:36:31.692Z,99420.73
2018-03-06T03:40:35.069Z,99425.57
2018-03-06T03:44:38.443Z,99426.25
2018-03-06T03:48:42.603Z,99420.16
2018-03-06T03:52:46.030Z,99423.79
2018-03-06T04:06:02.948Z,99419.03
2018-03-06T04:14:59.503Z,99417.69
2018-03-06T04:19:03.646Z,99424.70
2018-03-06T04:23:10.239Z,99420.53
2018-03-06T04:27:13.570Z,99418.55
2018-03-06T04:31:16.906Z,99414.27
2018-03-06T04:40:06.501Z,99415.06
2018-03-06T04:44:09.832Z,99407.72
2018-03-06T04:48:13.175Z,99406.15
2018-03-06T04:52:16.499Z,99398.03
2018-03-06T04:56:19.838Z,99392.99
2018-03-06T05:00:23.179Z,99392.39
2018-03-06T05:04:26.518Z,99395.81
2018-03-06T05:08:29.842Z,99407.09
2018-03-06T05:12:33.183Z,99402.47
2018-03-06T05:26:08.632Z,99393.33
2018-03-06T05:30:12.065Z,99396.12
2018-03-06T05:34:15.503Z,99396.84
2018-03-06T05:38:19.275Z,99396.31
2018-03-06T05:42:22.732Z,99399.63
2018-03-06T05:46:26.147Z,99394.27
2018-03-06T05:50:29.556Z,99395.64
2018-03-06T05:54:33.028Z,99398.08
2018-03-06T05:58:37.213Z,99389.50
2018-03-06T06:16:54.102Z,99392.44
2018-03-06T06:20:57.572Z,99395.14
2018-03-06T06:25:01.027Z,99398.73
2018-03-06T06:29:04.541Z,99405.67
2018-03-06T06:33:07.963Z,99403.80
2018-03-06T06:37:11.394Z,99399.34
2018-03-06T06:41:14.760Z,99406.24
2018-03-06T06:45:18.167Z,99404.90
2018-03-06T06:49:21.548Z,99410.09
2018-03-06T06:53:24.903Z,99409.66
2018-03-06T06:57:28.252Z,99406.16
2018-03-06T08:31:24.515Z,99429.29
2018-03-06T08:35:33.884Z,99429.37
2018-03-06T08:39:46.918Z,99433.89
2018-03-06T08:44:23.520Z,99437.19
2018-03-06T08:53:25.240Z,99427.72
2018-03-06T09:15:55.107Z,99437.70
2018-03-06T09:19:58.431Z,99437.45
2018-03-06T09:24:01.763Z,99429.06
2018-03-06T09:28:05.067Z,99426.12
2018-03-06T09:32:08.386Z,99423.10
2018-03-06T09:36:11.705Z,99414.52
2018-03-06T09:40:15.031Z,99423.45
2018-03-06T09:44:18.354Z,99422.36
2018-03-06T09:48:21.654Z,99419.02
2018-03-06T09:52:24.991Z,99412.45
2018-03-06T09:56:28.310Z,99413.64
2018-03-06T10:00:31.611Z,99414.77
2018-03-06T10:04:34.930Z,99411.98
2018-03-06T10:08:38.255Z,99404.47
2018-03-06T10:12:42.314Z,99410.58
2018-03-06T10:16:45.621Z,99411.99
2018-03-06T10:20:48.937Z,99410.23
2018-03-06T10:24:52.237Z,99405.70
2018-03-06T10:28:55.559Z,99411.52
2018-03-06T10:32:58.882Z,99406.89
2018-03-06T10:37:02.950Z,99404.44
2018-03-06T10:41:06.274Z,99408.85
2018-03-06T10:45:09.572Z,99400.29
2018-03-06T10:49:12.890Z,99398.53
2018-03-06T10:53:16.237Z,99406.52
2018-03-06T10:57:19.528Z,99397.41
2018-03-06T11:01:25.522Z,99403.09
2018-03-06T11:05:28.840Z,99391.77
2018-03-06T11:09:32.150Z,99390.70
2018-03-06T11:13:35.467Z,99386.97
2018-03-06T11:17:38.791Z,99381.17
2018-03-06T11:21:42.879Z,99370.63
2018-03-06T11:25:46.259Z,99367.92
2018-03-06T11:29:49.877Z,99366.06
2018-03-06T11:33:53.166Z,99367.05
2018-03-06T11:37:56.498Z,99360.55
2018-03-06T11:41:59.810Z,99360.59
2018-03-06T11:46:03.140Z,99365.28
2018-03-06T11:50:07.231Z,99356.59
2018-03-06T11:54:10.558Z,99357.30
2018-03-06T11:58:13.873Z,99352.73
2018-03-06T12:02:17.972Z,99350.92
2018-03-06T12:06:21.296Z,99345.81
2018-03-06T12:10:25.394Z,99344.83
2018-03-06T12:14:28.689Z,99337.34
2018-03-06T12:18:32.003Z,99335.10
2018-03-06T12:22:35.321Z,99335.06
2018-03-06T12:26:39.378Z,99337.71
2018-03-06T12:30:42.697Z,99327.80
2018-03-06T12:34:46.011Z,99324.69
2018-03-06T12:38:49.345Z,99319.16
2018-03-06T12:42:52.674Z,99324.56
2018-03-06T12:46:55.981Z,99321.86
2018-03-06T12:50:59.298Z,99318.05
2018-03-06T12:55:02.615Z,99314.80
2018-03-06T12:59:05.951Z,99311.48
2018-03-06T13:03:09.255Z,99320.60
2018-03-06T13:07:12.589Z,99314.41
2018-03-06T13:11:15.895Z,99312.46
2018-03-06T13:15:19.210Z,99317.63
2018-03-06T13:19:22.507Z,99316.60
2018-03-06T13:23:25.842Z,99325.16
2018-03-06T13:27:29.154Z,99322.92
2018-03-06T13:31:32.480Z,99320.18
2018-03-06T13:35:35.790Z,99315.02
2018-03-06T13:39:39.114Z,99300.06
2018-03-06T13:43:42.434Z,99310.33
2018-03-06T13:47:45.732Z,99308.98
2018-03-06T13:51:49.056Z,99308.14
2018-03-06T13:55:52.377Z,99309.44
2018-03-06T13:59:55.694Z,99311.62
2018-03-06T14:03:59.780Z,99301.13
2018-03-06T14:08:03.094Z,99309.62
2018-03-06T14:12:06.427Z,99305.16
2018-03-06T14:16:10.486Z,99305.30
2018-03-06T14:20:13.803Z,99295.02
2018-03-06T14:24:17.098Z,99287.86
2018-03-06T14:28:20.423Z,99286.05
2018-03-06T14:32:23.738Z,99286.48
2018-03-06T14:36:27.074Z,99287.23
2018-03-06T14:40:31.135Z,99281.66
2018-03-06T14:44:34.451Z,99274.13
2018-03-06T14:48:37.782Z,99282.69
2018-03-06T14:52:41.847Z,99290.23
2018-03-06T14:56:45.809Z,99280.24
2018-03-06T15:00:49.151Z,99276.28
2018-03-06T15:04:52.470Z,99279.82
2018-03-06T15:08:55.795Z,99276.26
2018-03-06T15:12:59.141Z,99278.25
2018-03-06T15:17:02.470Z,99272.67
2018-03-06T15:21:05.806Z,99283.28
2018-03-06T15:25:09.118Z,99277.75
2018-03-06T15:29:12.451Z,99276.56
2018-03-06T15:33:15.794Z,99282.46
2018-03-06T15:37:19.103Z,99284.70
2018-03-06T15:41:22.475Z,99276.83
2018-03-06T15:45:25.886Z,99274.20
2018-03-06T15:49:29.987Z,99273.81
2018-03-06T15:53:33.353Z,99271.41
2018-03-06T15:57:36.732Z,99275.16
2018-03-06T16:01:40.100Z,99269.59
2018-03-06T16:05:43.450Z,99271.85
2018-03-06T16:09:46.840Z,99272.23
2018-03-06T16:13:50.204Z,99269.20
2018-03-06T16:17:53.652Z,99266.97
2018-03-06T16:21:57.162Z,99271.86
2018-03-06T16:26:00.682Z,99281.78
2018-03-06T16:30:04.125Z,99281.64
2018-03-06T16:34:07.496Z,99288.19
2018-03-06T16:38:10.875Z,99295.88
2018-03-06T16:42:14.253Z,99297.44
2018-03-06T16:46:17.613Z,99307.11
2018-03-06T16:50:20.985Z,99309.84
2018-03-06T16:54:24.379Z,99311.22
2018-03-06T16:58:27.758Z,99318.16
2018-03-06T17:02:31.146Z,99315.11
2018-03-06T17:06:34.515Z,99316.91
2018-03-06T17:10:37.897Z,99320.04
2018-03-06T17:14:41.280Z,99322.53
2018-03-06T17:18:44.663Z,99323.89
2018-03-06T17:22:48.073Z,99322.59
2018-03-06T17:26:51.442Z,99328.26
2018-03-06T17:30:54.882Z,99330.22
2018-03-06T17:34:58.296Z,99326.83
